Lineboro, Maryland
Current Conditions -  °F | °C
As of 3:30 PM on Wednesday 26 Nov 2014 (Local Time) from KDMW Reporting Station
Light Snow Light Snow  
Wind Chill: 28°   Ceiling: 400
Heat Index: 34°   Visibility: 0.75mi
Dew Point: 30°   Wind: 7mph
Humidity: 87%   Direction: 350°N
Pressure: 29.91"   Gusts: NA
Location:  39.72°N, 76.84°W
Report Text: KDMW 262030Z AUTO 35006KT 3/4SM -SN OVC004 01/M01 A2991 RMK AO2 VIS 1/4V1 1/2 P0002
Loading
Personal Weather Stations






























Interactive Weather Map New forecast layout! Learn more

10-Day Weather Forecast

Advertisements
Track Severe Weather on mobile